Time;durP1;ratioP1;P1;durP2;ratioP2;P2;SDS_P1;SDS_P2;PMS_P1;PMS_P2;Temp;Humidity;BMP_temperature;BMP_pressure;BME280_temperature;BME280_humidity;BME280_pressure;Samples;Min_cycle;Max_cycle;Signal;HPM_P1;HPM_P2
2022/06/28 00:00:22;;;;;;;0.00;0.00;;;14.80;82.20;;;;;;5050643;28;20492;-68
2022/06/28 00:02:48;;;;;;;0.00;0.00;;;14.80;82.30;;;;;;5048856;28;20041;-68
2022/06/28 00:05:13;;;;;;;0.00;0.00;;;14.80;82.30;;;;;;5050342;28;20045;-69
2022/06/28 00:07:41;;;;;;;0.90;0.85;;;14.80;82.40;;;;;;5050194;28;20047;-69
2022/06/28 00:10:08;;;;;;;0.00;0.00;;;14.80;82.50;;;;;;5050063;28;20053;-69
2022/06/28 00:12:34;;;;;;;0.00;0.00;;;14.70;82.50;;;;;;5049995;28;20096;-69
2022/06/28 00:17:44;;;;;;;0.00;0.00;;;14.80;82.80;;;;;;5050097;28;20049;-69
2022/06/28 00:20:10;;;;;;;0.00;0.00;;;14.80;82.70;;;;;;5050197;28;20055;-68
2022/06/28 00:22:36;;;;;;;0.00;0.00;;;14.80;82.90;;;;;;5049998;28;20124;-69
2022/06/28 00:25:02;;;;;;;0.10;0.10;;;14.80;82.90;;;;;;5049605;28;20128;-69
2022/06/28 00:27:28;;;;;;;0.00;0.00;;;14.80;82.90;;;;;;5049837;28;20518;-69
2022/06/28 00:29:53;;;;;;;0.00;0.00;;;14.80;82.90;;;;;;5049809;28;20047;-69
2022/06/28 00:32:19;;;;;;;0.00;0.00;;;14.70;82.80;;;;;;5048203;28;20041;-69
2022/06/28 00:34:47;;;;;;;0.00;0.00;;;14.70;83.00;;;;;;5049929;28;20041;-69
2022/06/28 00:37:12;;;;;;;0.00;0.00;;;14.70;83.10;;;;;;5049582;28;20060;-69
2022/06/28 00:39:38;;;;;;;0.00;0.00;;;14.70;83.20;;;;;;5050108;28;20045;-69
2022/06/28 00:42:04;;;;;;;0.00;0.00;;;14.70;83.10;;;;;;5049528;28;20033;-69
2022/06/28 00:44:30;;;;;;;0.03;0.03;;;14.70;83.10;;;;;;5048660;28;20526;-69
2022/06/28 00:46:57;;;;;;;0.00;0.00;;;14.60;83.10;;;;;;5049235;28;20061;-69
2022/06/28 00:49:23;;;;;;;0.00;0.00;;;14.60;83.20;;;;;;5049655;28;20049;-69
2022/06/28 00:51:49;;;;;;;0.00;0.00;;;14.60;83.20;;;;;;5049844;28;20040;-68
2022/06/28 00:54:14;;;;;;;0.00;0.00;;;14.60;83.30;;;;;;5049529;28;20052;-68
2022/06/28 00:56:40;;;;;;;0.00;0.00;;;14.60;83.30;;;;;;5049371;28;20051;-69
2022/06/28 00:59:05;;;;;;;0.00;0.00;;;14.70;83.30;;;;;;5049075;28;20044;-68
2022/06/28 01:01:31;;;;;;;0.00;0.00;;;14.60;83.30;;;;;;5049486;28;20068;-68
2022/06/28 01:03:56;;;;;;;0.10;0.10;;;14.60;83.30;;;;;;5049191;28;20433;-68
2022/06/28 01:06:22;;;;;;;0.00;0.00;;;14.60;83.20;;;;;;5049346;28;20037;-69
2022/06/28 01:08:48;;;;;;;0.00;0.00;;;14.60;83.20;;;;;;5048857;28;20033;-68
2022/06/28 01:11:20;;;;;;;0.00;0.00;;;14.50;83.10;;;;;;5049180;28;20052;-68
2022/06/28 01:13:50;;;;;;;0.00;0.00;;;14.50;83.20;;;;;;5049107;28;20094;-68
2022/06/28 01:16:18;;;;;;;0.00;0.00;;;14.50;83.40;;;;;;5048448;28;20608;-68
2022/06/28 01:18:44;;;;;;;0.00;0.00;;;14.50;83.80;;;;;;5049164;28;20083;-68
2022/06/28 01:21:13;;;;;;;0.00;0.00;;;14.50;84.00;;;;;;5049209;28;20064;-69
2022/06/28 01:23:43;;;;;;;0.00;0.00;;;14.50;84.00;;;;;;5048840;28;20080;-68
2022/06/28 01:26:19;;;;;;;0.00;0.00;;;14.50;83.90;;;;;;5048962;28;20055;-68
2022/06/28 01:28:45;;;;;;;0.00;0.00;;;14.40;83.90;;;;;;5049190;28;20076;-68
2022/06/28 01:31:12;;;;;;;0.00;0.00;;;14.40;84.00;;;;;;5049066;28;20041;-68
2022/06/28 01:33:39;;;;;;;0.00;0.00;;;14.40;83.90;;;;;;5048770;28;20053;-68
2022/06/28 01:36:08;;;;;;;0.00;0.00;;;14.40;84.00;;;;;;5048792;28;20053;-69
2022/06/28 01:38:35;;;;;;;0.00;0.00;;;14.40;84.10;;;;;;5049236;28;20524;-68
2022/06/28 01:41:01;;;;;;;0.00;0.00;;;14.40;84.00;;;;;;5048826;28;20143;-68
2022/06/28 01:43:29;;;;;;;0.00;0.00;;;14.40;84.10;;;;;;5049042;28;20120;-68
2022/06/28 01:45:56;;;;;;;0.00;0.00;;;14.40;84.10;;;;;;5048643;28;20045;-68
2022/06/28 01:48:22;;;;;;;0.00;0.00;;;14.40;84.30;;;;;;5048956;28;20052;-68
2022/06/28 01:50:49;;;;;;;0.00;0.00;;;14.50;84.20;;;;;;5048516;28;20036;-69
2022/06/28 01:53:15;;;;;;;0.10;0.10;;;14.40;84.60;;;;;;5064370;28;20079;-69
2022/06/28 01:55:41;;;;;;;0.00;0.00;;;14.40;84.80;;;;;;5048905;28;20047;-68
2022/06/28 01:58:08;;;;;;;0.00;0.00;;;14.40;84.90;;;;;;5048745;28;20422;-69
2022/06/28 02:00:34;;;;;;;0.00;0.00;;;14.40;85.10;;;;;;5048494;28;20076;-68
2022/06/28 02:03:00;;;;;;;0.00;0.00;;;14.50;85.30;;;;;;5048734;28;20126;-68
2022/06/28 02:05:26;;;;;;;0.00;0.00;;;14.50;85.40;;;;;;5048641;28;20163;-69
2022/06/28 02:07:52;;;;;;;0.00;0.00;;;14.50;85.20;;;;;;5048620;28;20123;-69
2022/06/28 02:10:18;;;;;;;0.00;0.00;;;14.50;85.50;;;;;;5048579;28;20060;-68
2022/06/28 02:12:44;;;;;;;0.00;0.00;;;14.60;85.60;;;;;;5048582;28;20486;-68
2022/06/28 02:15:11;;;;;;;0.00;0.00;;;14.50;85.60;;;;;;5047915;28;20044;-68
2022/06/28 02:17:37;;;;;;;0.00;0.00;;;14.60;85.60;;;;;;5048659;28;20131;-69
2022/06/28 02:20:03;;;;;;;0.00;0.00;;;14.60;85.60;;;;;;5048241;28;20064;-69
2022/06/28 02:22:29;;;;;;;0.00;0.00;;;14.60;85.60;;;;;;5048364;28;20073;-69
2022/06/28 02:24:54;;;;;;;0.00;0.00;;;14.70;85.60;;;;;;5048660;28;20126;-69
2022/06/28 02:27:20;;;;;;;0.08;0.08;;;14.60;85.50;;;;;;5052225;28;20045;-69
2022/06/28 02:29:46;;;;;;;0.00;0.00;;;14.70;85.50;;;;;;5051988;28;20048;-68
2022/06/28 02:32:12;;;;;;;0.00;0.00;;;14.70;85.60;;;;;;5051781;28;20127;-70
2022/06/28 02:40:22;;;;;;;0.00;0.00;;;14.60;85.90;;;;;;5051732;28;20065;-69
2022/06/28 02:42:48;;;;;;;0.00;0.00;;;14.60;86.00;;;;;;5051899;28;20853;-69
2022/06/28 02:45:14;;;;;;;0.00;0.00;;;14.60;85.80;;;;;;5051720;28;20107;-69
2022/06/28 02:47:40;;;;;;;0.00;0.00;;;14.60;85.80;;;;;;5052233;28;20493;-68
2022/06/28 02:50:06;;;;;;;0.05;0.05;;;14.60;85.80;;;;;;5051440;28;20040;-69
2022/06/28 02:52:32;;;;;;;0.00;0.00;;;14.60;85.70;;;;;;5051159;28;20520;-69
2022/06/28 02:54:58;;;;;;;0.00;0.00;;;14.60;85.90;;;;;;5051477;28;20041;-69
2022/06/28 02:57:23;;;;;;;0.00;0.00;;;14.60;85.70;;;;;;5051753;28;20048;-69
2022/06/28 02:59:49;;;;;;;0.00;0.00;;;14.60;85.60;;;;;;5051152;28;20041;-68
2022/06/28 03:02:15;;;;;;;0.00;0.00;;;14.60;85.70;;;;;;5051278;28;20045;-68
2022/06/28 03:04:40;;;;;;;0.00;0.00;;;14.60;85.50;;;;;;5051364;28;20049;-68
2022/06/28 03:07:06;;;;;;;0.00;0.00;;;14.60;85.40;;;;;;5051780;28;20049;-68
2022/06/28 03:09:31;;;;;;;0.00;0.00;;;14.60;85.30;;;;;;5051466;28;20041;-69
2022/06/28 03:11:57;;;;;;;0.00;0.00;;;14.60;85.40;;;;;;5050849;28;20052;-69
2022/06/28 03:14:22;;;;;;;0.00;0.00;;;14.60;85.20;;;;;;5051537;28;20084;-69
2022/06/28 03:16:48;;;;;;;0.00;0.00;;;14.60;85.20;;;;;;5049998;28;20052;-69
2022/06/28 03:19:14;;;;;;;0.00;0.00;;;14.60;85.20;;;;;;5041314;28;20041;-68
2022/06/28 03:21:39;;;;;;;0.00;0.00;;;14.60;85.20;;;;;;5050785;28;20041;-68
2022/06/28 03:24:05;;;;;;;0.00;0.00;;;14.60;85.10;;;;;;5050302;28;20150;-69
2022/06/28 03:26:31;;;;;;;0.00;0.00;;;14.60;85.10;;;;;;5050937;28;20045;-69
2022/06/28 03:28:56;;;;;;;0.00;0.00;;;14.70;85.10;;;;;;5050236;28;20043;-69
2022/06/28 03:31:22;;;;;;;0.00;0.00;;;14.70;85.10;;;;;;5050181;28;20049;-69
2022/06/28 03:33:48;;;;;;;0.00;0.00;;;14.70;85.00;;;;;;5050182;28;20049;-69
2022/06/28 03:36:13;;;;;;;0.00;0.00;;;14.60;85.00;;;;;;5050213;28;20053;-69
2022/06/28 03:38:39;;;;;;;0.00;0.00;;;14.70;84.90;;;;;;5050565;28;20033;-69
2022/06/28 03:41:04;;;;;;;0.00;0.00;;;14.60;84.80;;;;;;5050240;28;20097;-69
2022/06/28 03:43:30;;;;;;;0.00;0.00;;;14.60;84.80;;;;;;5049734;28;20046;-69
2022/06/28 03:45:56;;;;;;;0.00;0.00;;;14.70;84.80;;;;;;5046646;28;20080;-68
2022/06/28 03:48:22;;;;;;;0.00;0.00;;;14.70;85.00;;;;;;5050469;28;20568;-68
2022/06/28 03:50:47;;;;;;;0.00;0.00;;;14.70;85.10;;;;;;5050153;28;20032;-68
2022/06/28 03:53:13;;;;;;;0.00;0.00;;;14.70;85.10;;;;;;5049967;28;20037;-69
2022/06/28 03:55:38;;;;;;;0.00;0.00;;;14.70;85.20;;;;;;5050500;28;20422;-69
2022/06/28 03:58:04;;;;;;;0.00;0.00;;;14.80;85.20;;;;;;5048908;28;20134;-69
2022/06/28 04:00:30;;;;;;;0.00;0.00;;;14.70;85.10;;;;;;5050306;28;20037;-68
2022/06/28 04:02:59;;;;;;;0.00;0.00;;;14.80;85.20;;;;;;5049939;28;20402;-69
2022/06/28 04:05:25;;;;;;;0.00;0.00;;;14.80;85.20;;;;;;5047976;28;20041;-69
2022/06/28 04:07:50;;;;;;;0.00;0.00;;;14.80;85.10;;;;;;5031415;28;20044;-68
2022/06/28 04:10:16;;;;;;;0.00;0.00;;;14.80;85.20;;;;;;5049776;28;20107;-69
2022/06/28 04:12:41;;;;;;;0.00;0.00;;;14.80;85.30;;;;;;5049785;28;20448;-69
2022/06/28 04:15:08;;;;;;;0.00;0.00;;;14.80;85.30;;;;;;5048112;28;20141;-69
2022/06/28 04:17:33;;;;;;;0.00;0.00;;;14.80;85.20;;;;;;5038113;28;20105;-69
2022/06/28 04:19:59;;;;;;;0.00;0.00;;;14.80;85.30;;;;;;5049339;28;20119;-69
2022/06/28 04:22:24;;;;;;;0.00;0.00;;;14.90;85.30;;;;;;5049526;28;20048;-69
2022/06/28 04:24:50;;;;;;;0.00;0.00;;;14.90;85.20;;;;;;5048472;28;20049;-69
2022/06/28 04:27:15;;;;;;;0.00;0.00;;;14.80;85.10;;;;;;5049269;28;20033;-69
2022/06/28 04:29:41;;;;;;;0.00;0.00;;;14.80;85.00;;;;;;5048430;28;20100;-69
2022/06/28 04:32:07;;;;;;;0.00;0.00;;;14.80;84.90;;;;;;5048167;28;20052;-69
2022/06/28 04:34:33;;;;;;;0.00;0.00;;;14.80;84.90;;;;;;5049288;28;20033;-69
2022/06/28 04:36:59;;;;;;;0.00;0.00;;;14.80;84.90;;;;;;5048805;28;20036;-69
2022/06/28 04:39:24;;;;;;;0.00;0.00;;;14.80;84.90;;;;;;5065338;28;20041;-69
2022/06/28 04:41:50;;;;;;;0.00;0.00;;;14.80;85.10;;;;;;5049002;28;20073;-68
2022/06/28 04:44:16;;;;;;;0.00;0.00;;;14.80;85.30;;;;;;5049062;28;20413;-69
2022/06/28 04:46:41;;;;;;;0.00;0.00;;;14.80;85.40;;;;;;5049408;28;20041;-69
2022/06/28 04:49:07;;;;;;;0.00;0.00;;;14.90;85.40;;;;;;5048090;28;20044;-69
2022/06/28 04:51:33;;;;;;;0.00;0.00;;;15.00;85.40;;;;;;5049457;28;20136;-69
2022/06/28 04:53:58;;;;;;;0.00;0.00;;;15.00;85.40;;;;;;5048297;28;20590;-69
2022/06/28 04:56:24;;;;;;;0.00;0.00;;;15.00;85.70;;;;;;5049322;28;20045;-68
2022/06/28 04:58:51;;;;;;;0.00;0.00;;;15.10;85.70;;;;;;5048559;28;20152;-69
2022/06/28 05:01:17;;;;;;;0.00;0.00;;;15.20;85.60;;;;;;5048449;28;20409;-69
2022/06/28 05:03:43;;;;;;;0.00;0.00;;;15.20;85.60;;;;;;5048668;28;20044;-68
2022/06/28 05:06:08;;;;;;;0.00;0.00;;;15.30;85.60;;;;;;5048975;28;20040;-68
2022/06/28 05:08:34;;;;;;;0.00;0.00;;;15.30;85.60;;;;;;5049087;28;20440;-68
2022/06/28 05:11:01;;;;;;;0.00;0.00;;;15.40;85.70;;;;;;5048397;28;20057;-68
2022/06/28 05:13:26;;;;;;;0.65;0.43;;;15.40;85.70;;;;;;5048582;28;20107;-69
2022/06/28 05:15:52;;;;;;;0.10;0.10;;;15.40;85.80;;;;;;5048307;28;20049;-68
2022/06/28 05:18:17;;;;;;;0.00;0.00;;;15.50;86.00;;;;;;5048767;28;20033;-68
2022/06/28 05:20:43;;;;;;;0.00;0.00;;;15.60;86.10;;;;;;5046501;28;20063;-68
2022/06/28 05:23:08;;;;;;;0.00;0.00;;;15.60;86.10;;;;;;5047553;28;20041;-69
2022/06/28 05:25:34;;;;;;;0.00;0.00;;;15.60;85.90;;;;;;5048772;28;20397;-69
2022/06/28 05:28:00;;;;;;;0.00;0.00;;;15.70;85.80;;;;;;5048438;28;20049;-69
2022/06/28 05:30:25;;;;;;;0.00;0.00;;;15.70;85.70;;;;;;5048254;28;20048;-69
2022/06/28 05:32:51;;;;;;;0.00;0.00;;;15.80;85.80;;;;;;5048814;28;20039;-69
2022/06/28 05:35:16;;;;;;;0.00;0.00;;;15.80;85.80;;;;;;5048522;28;20037;-69
2022/06/28 05:37:42;;;;;;;0.00;0.00;;;15.90;86.00;;;;;;5048648;28;20056;-69
2022/06/28 05:40:08;;;;;;;0.03;0.03;;;15.90;86.10;;;;;;5048256;28;20052;-69
2022/06/28 05:42:34;;;;;;;0.00;0.00;;;16.00;86.20;;;;;;5048954;28;20045;-69
2022/06/28 05:44:59;;;;;;;0.00;0.00;;;16.00;86.40;;;;;;5047978;28;20045;-68
2022/06/28 05:47:25;;;;;;;0.00;0.00;;;16.10;86.60;;;;;;5049048;28;20037;-69
2022/06/28 05:49:50;;;;;;;0.00;0.00;;;16.10;86.30;;;;;;5048120;28;20504;-69
2022/06/28 05:52:16;;;;;;;0.00;0.00;;;16.20;85.80;;;;;;5048219;28;20708;-68
2022/06/28 05:54:42;;;;;;;0.00;0.00;;;16.20;86.10;;;;;;5048067;28;20060;-68
2022/06/28 05:57:07;;;;;;;0.00;0.00;;;16.20;85.90;;;;;;5044253;28;20101;-69
2022/06/28 05:59:33;;;;;;;1.65;0.85;;;16.20;85.80;;;;;;5039741;28;20477;-67
2022/06/28 06:01:58;;;;;;;0.95;0.65;;;16.30;86.00;;;;;;5052331;28;20456;-68
2022/06/28 06:04:25;;;;;;;0.00;0.00;;;16.30;85.80;;;;;;5051985;28;20597;-69
2022/06/28 06:06:52;;;;;;;0.00;0.00;;;16.30;85.30;;;;;;5052287;28;20063;-68
2022/06/28 06:09:17;;;;;;;0.40;0.40;;;16.40;85.10;;;;;;5051530;28;20049;-68
2022/06/28 06:11:44;;;;;;;0.00;0.00;;;16.40;85.00;;;;;;5051954;28;20433;-69
2022/06/28 06:14:10;;;;;;;0.00;0.00;;;16.50;84.90;;;;;;5051735;28;20551;-69
2022/06/28 06:16:36;;;;;;;0.10;0.10;;;16.50;84.90;;;;;;5050294;28;20417;-69
2022/06/28 06:19:02;;;;;;;0.00;0.00;;;16.50;84.60;;;;;;5051643;28;20045;-69
2022/06/28 06:21:28;;;;;;;0.00;0.00;;;16.60;84.50;;;;;;5050018;28;20120;-70
2022/06/28 06:23:53;;;;;;;0.03;0.03;;;16.60;84.10;;;;;;5051281;28;20556;-70
2022/06/28 06:26:19;;;;;;;0.00;0.00;;;16.70;83.80;;;;;;5051751;28;20052;-69
2022/06/28 06:28:44;;;;;;;0.00;0.00;;;16.80;82.90;;;;;;5052075;28;20037;-68
2022/06/28 06:31:10;;;;;;;0.00;0.00;;;16.80;82.60;;;;;;5051679;28;20048;-69
2022/06/28 06:33:36;;;;;;;0.00;0.00;;;16.70;82.40;;;;;;5051489;28;20042;-70
2022/06/28 06:36:02;;;;;;;0.00;0.00;;;16.80;82.30;;;;;;5049605;28;20041;-70
2022/06/28 06:38:28;;;;;;;0.00;0.00;;;16.80;82.30;;;;;;5051222;28;20041;-70
2022/06/28 06:40:55;;;;;;;0.00;0.00;;;16.90;82.30;;;;;;5050791;28;20063;-70
2022/06/28 06:43:21;;;;;;;0.00;0.00;;;16.90;82.10;;;;;;5051348;28;20044;-70
2022/06/28 06:45:47;;;;;;;0.10;0.10;;;17.00;81.70;;;;;;5050939;28;20308;-70
2022/06/28 06:48:13;;;;;;;0.25;0.25;;;17.00;81.20;;;;;;5051557;28;20131;-71
2022/06/28 06:50:38;;;;;;;0.00;0.00;;;17.10;80.50;;;;;;5049996;28;20139;-70
2022/06/28 06:53:04;;;;;;;0.00;0.00;;;17.10;79.80;;;;;;5051245;28;20124;-71
2022/06/28 06:55:30;;;;;;;0.00;0.00;;;17.20;80.40;;;;;;5050142;28;20077;-70
2022/06/28 06:57:56;;;;;;;0.00;0.00;;;17.30;80.10;;;;;;5050489;28;20045;-71
2022/06/28 07:00:22;;;;;;;0.00;0.00;;;17.30;79.80;;;;;;5051038;28;20037;-71
2022/06/28 07:02:47;;;;;;;0.00;0.00;;;17.40;80.00;;;;;;5050685;28;20068;-71
2022/06/28 07:05:13;;;;;;;0.00;0.00;;;17.50;79.70;;;;;;5050594;28;20110;-71
2022/06/28 07:07:39;;;;;;;0.00;0.00;;;17.60;79.70;;;;;;5049891;28;20072;-70
2022/06/28 07:10:05;;;;;;;0.00;0.00;;;17.60;79.40;;;;;;5050644;28;20425;-70
2022/06/28 07:12:30;;;;;;;0.00;0.00;;;17.70;78.60;;;;;;5048895;28;20049;-71
2022/06/28 07:14:57;;;;;;;0.00;0.00;;;17.80;78.20;;;;;;5046253;28;20048;-71
2022/06/28 07:17:22;;;;;;;0.10;0.10;;;17.90;77.30;;;;;;5041487;28;20164;-70
2022/06/28 07:19:48;;;;;;;0.00;0.00;;;17.80;74.80;;;;;;5038456;28;20120;-70
2022/06/28 07:22:13;;;;;;;0.00;0.00;;;17.70;73.80;;;;;;5033346;28;20041;-71
2022/06/28 07:24:39;;;;;;;0.00;0.00;;;17.70;75.00;;;;;;5043608;28;20592;-71
2022/06/28 07:27:05;;;;;;;0.00;0.00;;;17.80;75.60;;;;;;5048990;28;20037;-71
2022/06/28 07:29:30;;;;;;;0.00;0.00;;;17.80;76.40;;;;;;5048839;28;20509;-71
2022/06/28 07:31:56;;;;;;;0.00;0.00;;;17.90;75.70;;;;;;5030362;28;20502;-72
2022/06/28 07:34:23;;;;;;;0.00;0.00;;;18.00;74.80;;;;;;5035502;28;20163;-71
2022/06/28 07:36:49;;;;;;;0.00;0.00;;;18.00;74.90;;;;;;5037724;28;20049;-71
2022/06/28 07:39:15;;;;;;;0.52;0.47;;;18.10;75.50;;;;;;5037220;28;20064;-70
2022/06/28 07:41:40;;;;;;;0.00;0.00;;;18.10;75.70;;;;;;5034329;28;20981;-70
2022/06/28 07:44:06;;;;;;;0.00;0.00;;;18.10;73.10;;;;;;5042014;28;20052;-71
2022/06/28 07:46:32;;;;;;;0.00;0.00;;;18.10;73.10;;;;;;5050361;28;20041;-70
2022/06/28 07:48:58;;;;;;;0.00;0.00;;;18.10;72.80;;;;;;5050408;28;20048;-71
2022/06/28 07:54:08;;;;;;;0.00;0.00;;;18.30;71.60;;;;;;5030814;28;20057;-70
2022/06/28 07:56:33;;;;;;;0.00;0.00;;;18.40;72.50;;;;;;5050096;28;20075;-70
2022/06/28 07:58:59;;;;;;;0.00;0.00;;;18.50;73.20;;;;;;5049501;28;20128;-71
2022/06/28 08:01:25;;;;;;;3.03;0.88;;;18.50;70.80;;;;;;5065563;28;20387;-70
2022/06/28 08:03:51;;;;;;;0.00;0.00;;;18.50;71.40;;;;;;5049705;28;20056;-70
2022/06/28 08:06:16;;;;;;;1.02;0.98;;;18.60;69.70;;;;;;5049968;28;20494;-70
2022/06/28 08:08:42;;;;;;;0.00;0.00;;;18.50;68.20;;;;;;5042041;28;20041;-70
2022/06/28 08:11:09;;;;;;;0.00;0.00;;;18.50;68.30;;;;;;5048657;28;20445;-73
2022/06/28 08:13:35;;;;;;;0.10;0.10;;;18.50;68.50;;;;;;5048585;28;20805;-70
2022/06/28 08:16:01;;;;;;;0.10;0.10;;;18.50;65.30;;;;;;5049430;28;20179;-70
2022/06/28 08:18:27;;;;;;;0.30;0.30;;;18.50;67.40;;;;;;5049445;28;20123;-70
2022/06/28 08:20:54;;;;;;;0.00;0.00;;;18.50;67.30;;;;;;5049216;28;20055;-69
2022/06/28 08:23:20;;;;;;;0.08;0.08;;;18.50;66.20;;;;;;5047580;28;20049;-74
2022/06/28 08:25:46;;;;;;;0.00;0.00;;;18.60;70.30;;;;;;5049448;28;20129;-71
2022/06/28 08:28:13;;;;;;;0.00;0.00;;;19.00;69.70;;;;;;5049030;28;20107;-69
2022/06/28 08:30:40;;;;;;;0.00;0.00;;;19.20;65.70;;;;;;5049274;28;20051;-70
2022/06/28 08:33:05;;;;;;;0.00;0.00;;;19.30;67.00;;;;;;5049236;28;20106;-70
2022/06/28 08:35:31;;;;;;;0.00;0.00;;;19.30;67.90;;;;;;5049441;28;20041;-70
2022/06/28 08:37:56;;;;;;;0.00;0.00;;;19.30;67.40;;;;;;5049099;28;20120;-70
2022/06/28 08:40:25;;;;;;;0.00;0.00;;;19.20;65.00;;;;;;5048698;28;20110;-69
2022/06/28 08:42:53;;;;;;;0.00;0.00;;;19.00;63.80;;;;;;5048982;28;20103;-70
2022/06/28 08:45:21;;;;;;;0.00;0.00;;;19.00;65.40;;;;;;5049306;28;20413;-70
2022/06/28 08:47:48;;;;;;;0.00;0.00;;;19.00;65.50;;;;;;5048846;28;20045;-70
2022/06/28 08:50:27;;;;;;;0.00;0.00;;;19.00;64.80;;;;;;5048024;28;20048;-70
2022/06/28 08:52:54;;;;;;;0.00;0.00;;;19.00;65.40;;;;;;5049117;28;20571;-70
2022/06/28 08:55:21;;;;;;;0.00;0.00;;;19.00;66.30;;;;;;5049239;28;20422;-69
2022/06/28 08:57:47;;;;;;;0.00;0.00;;;19.10;66.10;;;;;;5048709;28;20041;-70
2022/06/28 09:00:13;;;;;;;0.00;0.00;;;19.10;62.20;;;;;;5048819;28;20371;-69
2022/06/28 09:02:39;;;;;;;0.00;0.00;;;19.10;63.30;;;;;;5047972;28;20087;-69
2022/06/28 09:05:05;;;;;;;0.00;0.00;;;19.20;64.10;;;;;;5048991;28;20048;-70
2022/06/28 09:07:31;;;;;;;0.00;0.00;;;19.20;63.10;;;;;;5048575;28;20037;-71
2022/06/28 09:09:57;;;;;;;0.00;0.00;;;19.30;61.50;;;;;;5045383;28;20461;-72
2022/06/28 09:12:22;;;;;;;0.00;0.00;;;19.20;60.10;;;;;;5044735;28;20515;-73
2022/06/28 09:14:48;;;;;;;0.00;0.00;;;19.20;59.90;;;;;;5038918;28;20761;-71
2022/06/28 09:17:20;;;;;;;0.00;0.00;;;19.30;61.80;;;;;;5048674;28;20041;-70
2022/06/28 09:19:46;;;;;;;0.00;0.00;;;19.20;62.30;;;;;;5048850;28;20049;-70
2022/06/28 09:22:28;;;;;;;7.28;0.65;;;19.30;63.90;;;;;;5048704;28;20407;-70
2022/06/28 09:24:54;;;;;;;0.10;0.10;;;19.40;62.60;;;;;;5048641;28;20045;-70
2022/06/28 09:27:37;;;;;;;0.00;0.00;;;19.40;63.70;;;;;;5048335;28;20402;-72
2022/06/28 09:30:06;;;;;;;0.00;0.00;;;19.40;63.20;;;;;;5048463;28;20060;-70
2022/06/28 09:32:34;;;;;;;0.00;0.00;;;19.20;62.10;;;;;;5048744;28;20136;-70
2022/06/28 09:35:03;;;;;;;0.00;0.00;;;19.30;63.90;;;;;;5051058;28;20107;-70
2022/06/28 09:37:52;;;;;;;0.00;0.00;;;19.30;64.40;;;;;;5051386;28;20056;-71
2022/06/28 09:40:25;;;;;;;0.00;0.00;;;19.20;62.90;;;;;;5034061;28;20204;-71
2022/06/28 09:43:12;;;;;;;0.00;0.00;;;19.40;64.20;;;;;;5052295;28;20127;-71
2022/06/28 09:45:43;;;;;;;3.53;1.23;;;19.50;64.30;;;;;;5045417;28;20045;-71
2022/06/28 09:48:15;;;;;;;0.00;0.00;;;19.50;62.10;;;;;;5042899;28;20041;-72
2022/06/28 09:50:40;;;;;;;;;;;19.40;63.10;;;;;;5050705;28;20046;-70
2022/06/28 09:53:07;;;;;;;0.00;0.00;;;19.40;62.50;;;;;;5042966;28;19963;-69
2022/06/28 09:55:33;;;;;;;0.00;0.00;;;19.30;62.60;;;;;;5042258;28;20084;-69
2022/06/28 09:58:02;;;;;;;0.00;0.00;;;19.10;62.70;;;;;;5051967;28;20053;-70
2022/06/28 10:00:29;;;;;;;0.00;0.00;;;19.20;62.50;;;;;;5050302;28;20056;-70
2022/06/28 10:02:57;;;;;;;0.00;0.00;;;19.10;61.30;;;;;;5041803;28;20530;-70
2022/06/28 10:05:24;;;;;;;0.00;0.00;;;19.00;62.00;;;;;;5045048;28;20497;-70
2022/06/28 10:07:50;;;;;;;0.00;0.00;;;19.10;62.80;;;;;;5041500;28;20140;-70
2022/06/28 10:10:16;;;;;;;0.00;0.00;;;19.00;62.00;;;;;;5044481;28;20144;-69
2022/06/28 10:15:34;;;;;;;0.00;0.00;;;19.20;63.00;;;;;;5044200;28;20127;-70
2022/06/28 10:18:01;;;;;;;4.30;0.85;;;19.50;63.00;;;;;;5046616;28;20143;-70
2022/06/28 10:20:35;;;;;;;0.00;0.00;;;19.70;62.20;;;;;;5050423;28;20412;-70
2022/06/28 10:23:24;;;;;;;0.00;0.00;;;19.80;61.30;;;;;;5032059;28;20056;-70
2022/06/28 10:26:18;;;;;;;0.00;0.00;;;20.00;62.70;;;;;;5040274;28;20040;-69
2022/06/28 10:29:04;;;;;;;0.00;0.00;;;20.10;61.30;;;;;;5043402;28;20041;-70
2022/06/28 10:31:32;;;;;;;0.00;0.00;;;20.20;62.50;;;;;;5048565;28;20486;-70
2022/06/28 10:34:03;;;;;;;0.00;0.00;;;20.20;61.90;;;;;;5051607;28;20045;-70
2022/06/28 10:36:48;;;;;;;0.00;0.00;;;20.20;60.30;;;;;;5041027;28;20037;-69
2022/06/28 10:39:15;;;;;;;0.25;0.15;;;20.30;61.00;;;;;;5051426;28;20103;-69
2022/06/28 10:42:04;;;;;;;0.00;0.00;;;20.30;60.80;;;;;;5049864;28;20124;-70
2022/06/28 10:44:32;;;;;;;0.10;0.10;;;20.40;60.60;;;;;;5031821;28;20041;-70
2022/06/28 10:47:01;;;;;;;0.00;0.00;;;20.40;61.70;;;;;;5035279;28;20531;-70
2022/06/28 10:49:50;;;;;;;0.00;0.00;;;20.40;60.50;;;;;;5049656;28;20056;-70
2022/06/28 10:52:16;;;;;;;0.00;0.00;;;20.50;62.00;;;;;;5049270;28;20494;-70
2022/06/28 10:55:11;;;;;;;0.00;0.00;;;20.60;59.80;;;;;;5051332;28;20478;-70
2022/06/28 10:57:39;;;;;;;0.00;0.00;;;20.50;60.20;;;;;;5048673;28;20144;-70
2022/06/28 11:00:10;;;;;;;0.00;0.00;;;20.70;59.40;;;;;;5038402;28;20482;-70
2022/06/28 11:02:51;;;;;;;;;;;20.70;56.20;;;;;;5038892;28;20036;-70
2022/06/28 11:05:19;;;;;;;0.00;0.00;;;20.90;57.30;;;;;;5051462;28;19921;-70
2022/06/28 11:08:01;;;;;;;0.00;0.00;;;20.90;58.50;;;;;;5051076;28;20041;-71
2022/06/28 11:10:29;;;;;;;0.00;0.00;;;21.00;57.00;;;;;;5051019;28;20057;-70
2022/06/28 11:13:18;;;;;;;0.00;0.00;;;21.00;58.00;;;;;;5042565;28;20418;-70
2022/06/28 11:15:43;;;;;;;0.00;0.00;;;21.10;58.20;;;;;;5029912;28;20471;-69
2022/06/28 11:18:20;;;;;;;0.00;0.00;;;21.10;56.90;;;;;;5041381;28;20107;-70
2022/06/28 11:20:46;;;;;;;0.00;0.00;;;21.20;56.80;;;;;;5046239;28;20443;-71
2022/06/28 11:23:25;;;;;;;1.17;1.08;;;21.10;54.40;;;;;;5051220;28;20703;-70
2022/06/28 11:28:55;;;;;;;0.10;0.10;;;21.20;55.30;;;;;;5049490;28;20045;-70
2022/06/28 11:31:21;;;;;;;0.00;0.00;;;21.10;55.30;;;;;;5046354;28;20121;-71
2022/06/28 11:33:48;;;;;;;0.00;0.00;;;21.10;55.00;;;;;;5050025;28;20128;-70
2022/06/28 11:36:29;;;;;;;0.00;0.00;;;21.20;56.80;;;;;;5050280;28;20045;-71
2022/06/28 11:39:00;;;;;;;0.00;0.00;;;21.20;51.80;;;;;;5046540;28;20037;-71
2022/06/28 11:41:30;;;;;;;1.47;0.30;;;21.30;53.40;;;;;;5050416;28;20047;-72
2022/06/28 11:43:58;;;;;;;0.00;0.00;;;21.20;53.10;;;;;;5049885;28;20414;-71
2022/06/28 11:46:25;;;;;;;0.00;0.00;;;21.30;54.00;;;;;;5050106;28;20044;-71
2022/06/28 11:48:51;;;;;;;0.00;0.00;;;21.30;54.30;;;;;;5050086;28;20041;-70
2022/06/28 11:51:26;;;;;;;0.00;0.00;;;21.30;54.70;;;;;;5049895;28;20144;-73
2022/06/28 11:53:52;;;;;;;0.00;0.00;;;21.30;55.40;;;;;;5048207;28;20132;-73
2022/06/28 11:56:18;;;;;;;0.00;0.00;;;21.30;55.10;;;;;;5045375;28;20152;-72
2022/06/28 11:58:45;;;;;;;0.00;0.00;;;21.30;55.50;;;;;;5047276;28;20033;-73
2022/06/28 12:01:16;;;;;;;0.00;0.00;;;21.50;55.50;;;;;;5048697;28;20047;-72
2022/06/28 12:03:41;;;;;;;0.00;0.00;;;21.70;54.60;;;;;;5049704;28;20049;-72
2022/06/28 12:06:29;;;;;;;0.00;0.00;;;21.80;53.30;;;;;;5050219;28;20056;-72
2022/06/28 12:09:03;;;;;;;0.00;0.00;;;21.70;51.90;;;;;;5045433;28;20139;-69
2022/06/28 12:11:30;;;;;;;0.00;0.00;;;21.80;54.30;;;;;;5037849;28;20327;-73
2022/06/28 12:13:56;;;;;;;0.00;0.00;;;21.60;53.80;;;;;;5043054;28;20053;-73
2022/06/28 12:16:22;;;;;;;0.00;0.00;;;21.50;52.30;;;;;;5029687;28;20049;-73
2022/06/28 12:18:52;;;;;;;0.00;0.00;;;21.50;54.20;;;;;;5042326;28;20045;-73
2022/06/28 12:21:18;;;;;;;0.00;0.00;;;21.60;55.70;;;;;;5050132;28;20051;-74
2022/06/28 12:23:53;;;;;;;0.00;0.00;;;21.70;56.10;;;;;;5048438;28;20080;-73
2022/06/28 12:26:20;;;;;;;0.00;0.00;;;21.80;56.10;;;;;;5046716;28;20044;-74
2022/06/28 12:28:46;;;;;;;0.00;0.00;;;22.00;55.90;;;;;;5049399;28;20132;-74
2022/06/28 12:31:11;;;;;;;0.00;0.00;;;22.00;55.10;;;;;;5049101;28;20136;-73
2022/06/28 12:33:37;;;;;;;0.00;0.00;;;22.10;55.30;;;;;;5048589;28;20079;-71
2022/06/28 12:36:03;;;;;;;0.00;0.00;;;22.00;55.70;;;;;;5044939;28;20049;-73
2022/06/28 12:38:29;;;;;;;0.00;0.00;;;21.90;54.50;;;;;;5049304;28;20037;-73
2022/06/28 12:40:56;;;;;;;0.00;0.00;;;21.80;54.30;;;;;;5048368;28;20052;-72
2022/06/28 12:43:21;;;;;;;0.00;0.00;;;21.80;53.60;;;;;;5039732;28;20492;-73
2022/06/28 12:45:47;;;;;;;0.00;0.00;;;21.90;55.10;;;;;;5048861;28;20045;-72
2022/06/28 12:48:12;;;;;;;0.00;0.00;;;21.90;50.80;;;;;;5048349;28;20037;-72
2022/06/28 12:50:38;;;;;;;0.00;0.00;;;22.00;51.60;;;;;;5049096;28;20053;-72
2022/06/28 12:53:03;;;;;;;0.00;0.00;;;22.00;53.80;;;;;;5048922;28;20464;-72
2022/06/28 12:55:29;;;;;;;0.00;0.00;;;22.10;52.00;;;;;;5048906;28;20049;-72
2022/06/28 12:57:55;;;;;;;0.20;0.20;;;22.20;51.70;;;;;;5043537;28;20410;-72
2022/06/28 13:00:20;;;;;;;0.00;0.00;;;22.20;51.20;;;;;;5046291;28;20056;-73
2022/06/28 13:02:46;;;;;;;0.00;0.00;;;22.40;52.60;;;;;;5064081;28;20098;-72
2022/06/28 13:05:12;;;;;;;0.03;0.03;;;22.50;53.60;;;;;;5047491;28;20107;-72